Time;durP1;ratioP1;P1;durP2;ratioP2;P2;SDS_P1;SDS_P2;PMS_P1;PMS_P2;Temp;Humidity;BMP_temperature;BMP_pressure;BME280_temperature;BME280_humidity;BME280_pressure;Samples;Min_cycle;Max_cycle;Signal;HPM_P1;HPM_P2
2024/03/28 00:01:51;;;;;;;7.27;4.23;;;8.60;96.50;;;;;;5013447;28;20033;-80
2024/03/28 00:04:17;;;;;;;8.43;4.20;;;8.60;96.60;;;;;;5013453;28;20030;-79
2024/03/28 00:06:43;;;;;;;7.87;4.80;;;8.70;96.70;;;;;;5013483;28;20530;-78
2024/03/28 00:09:08;;;;;;;6.50;4.20;;;8.70;96.70;;;;;;5013126;28;20116;-80
2024/03/28 00:11:34;;;;;;;7.07;4.00;;;8.70;96.70;;;;;;5013843;28;20052;-80
2024/03/28 00:14:00;;;;;;;7.17;4.27;;;8.70;96.70;;;;;;5013383;28;20030;-80
2024/03/28 00:16:25;;;;;;;10.83;4.13;;;8.80;96.80;;;;;;5028270;28;20042;-79
2024/03/28 00:18:51;;;;;;;8.50;4.47;;;8.80;96.80;;;;;;5013132;28;20026;-80
2024/03/28 00:21:16;;;;;;;7.40;3.77;;;8.80;96.80;;;;;;5028510;28;20057;-80
2024/03/28 00:23:42;;;;;;;8.30;4.40;;;8.70;96.80;;;;;;5028576;28;20101;-80
2024/03/28 00:26:08;;;;;;;6.87;4.20;;;8.80;96.90;;;;;;5013322;28;20422;-79
2024/03/28 00:28:34;;;;;;;7.30;4.63;;;8.80;96.90;;;;;;5013251;28;20030;-79
2024/03/28 00:31:01;;;;;;;7.03;4.53;;;8.80;96.90;;;;;;5012537;28;20345;-80
2024/03/28 00:33:27;;;;;;;7.03;4.47;;;8.70;96.80;;;;;;5013234;28;20037;-80
2024/03/28 00:35:52;;;;;;;7.80;4.47;;;8.80;96.90;;;;;;5013219;28;20025;-80
2024/03/28 00:38:18;;;;;;;7.33;4.43;;;8.70;96.90;;;;;;5012897;28;20014;-79
2024/03/28 00:40:52;;;;;;;8.73;4.80;;;8.70;96.90;;;;;;5012970;28;20021;-80
2024/03/28 00:43:18;;;;;;;7.15;4.40;;;8.70;96.90;;;;;;5013168;28;20486;-79
2024/03/28 00:45:44;;;;;;;7.63;4.27;;;8.70;96.90;;;;;;5012585;28;20038;-79
2024/03/28 00:48:10;;;;;;;7.37;4.43;;;8.60;96.90;;;;;;5012938;28;20044;-79
2024/03/28 00:50:37;;;;;;;7.73;4.70;;;8.70;97.00;;;;;;5014693;28;20038;-80
2024/03/28 00:53:03;;;;;;;7.70;4.87;;;8.70;97.10;;;;;;5016752;28;20481;-80
2024/03/28 00:55:29;;;;;;;7.13;4.60;;;8.70;97.10;;;;;;5017065;28;20030;-79
2024/03/28 00:57:55;;;;;;;7.80;4.40;;;8.70;97.10;;;;;;5017106;28;20018;-80
2024/03/28 01:00:21;;;;;;;7.33;5.17;;;8.70;97.40;;;;;;5032029;28;20026;-79
2024/03/28 01:02:47;;;;;;;7.87;4.53;;;8.70;97.20;;;;;;5017145;28;20076;-80
2024/03/28 01:05:14;;;;;;;7.93;4.27;;;8.70;97.20;;;;;;5016803;28;20026;-80
2024/03/28 01:07:40;;;;;;;7.83;4.40;;;8.70;97.20;;;;;;5016705;28;20049;-80
2024/03/28 01:10:06;;;;;;;7.57;4.40;;;8.70;97.20;;;;;;5016850;28;20188;-80
2024/03/28 01:12:32;;;;;;;8.30;4.40;;;8.70;97.20;;;;;;5016416;28;20024;-80
2024/03/28 01:14:57;;;;;;;6.67;3.93;;;8.70;97.20;;;;;;5016319;28;20030;-80
2024/03/28 01:17:23;;;;;;;5.90;3.60;;;8.70;97.20;;;;;;5016397;28;20049;-79
2024/03/28 01:19:50;;;;;;;6.73;3.87;;;8.70;97.20;;;;;;5016579;28;20470;-80
2024/03/28 01:22:16;;;;;;;8.27;4.20;;;8.80;97.20;;;;;;5016576;28;20017;-80
2024/03/28 01:24:42;;;;;;;7.53;4.27;;;8.70;97.10;;;;;;5016295;28;20091;-80
2024/03/28 01:27:07;;;;;;;9.67;4.37;;;8.80;97.10;;;;;;5016121;28;20056;-79
2024/03/28 01:29:33;;;;;;;7.07;4.27;;;8.80;97.00;;;;;;5031520;28;20058;-80
2024/03/28 01:31:58;;;;;;;8.50;4.50;;;8.70;97.00;;;;;;5016153;28;20048;-80
2024/03/28 01:34:26;;;;;;;6.60;4.23;;;8.70;97.00;;;;;;5016449;28;20493;-80
2024/03/28 01:36:52;;;;;;;5.73;4.03;;;8.70;97.00;;;;;;5015967;28;20429;-80
2024/03/28 01:39:18;;;;;;;6.80;4.27;;;8.70;97.00;;;;;;5016013;28;20026;-80
2024/03/28 01:41:47;;;;;;;8.70;4.07;;;8.70;96.90;;;;;;5016161;28;20367;-79
2024/03/28 01:44:13;;;;;;;8.83;4.67;;;8.70;97.00;;;;;;5015880;28;20064;-80
2024/03/28 01:46:40;;;;;;;6.53;4.07;;;8.60;96.90;;;;;;5016195;28;20451;-80
2024/03/28 01:49:07;;;;;;;7.93;5.00;;;8.70;97.00;;;;;;5016030;28;20087;-81
2024/03/28 01:51:32;;;;;;;10.10;4.87;;;8.60;97.00;;;;;;5015922;28;20029;-79
2024/03/28 01:53:59;;;;;;;8.00;4.83;;;8.60;97.00;;;;;;5015859;28;20014;-80
2024/03/28 01:56:24;;;;;;;7.70;4.50;;;8.60;97.00;;;;;;5030776;28;20027;-80
2024/03/28 01:58:51;;;;;;;7.57;4.30;;;8.60;97.00;;;;;;5015577;28;20106;-80
2024/03/28 02:01:17;;;;;;;6.67;3.93;;;8.60;97.10;;;;;;5015088;28;20056;-80
2024/03/28 02:03:43;;;;;;;7.57;4.77;;;8.60;97.10;;;;;;5015321;28;20375;-79
2024/03/28 02:06:09;;;;;;;7.10;4.20;;;8.60;97.10;;;;;;5015939;28;20479;-80
2024/03/28 02:08:34;;;;;;;9.20;5.10;;;8.60;97.10;;;;;;5015364;28;20034;-80
2024/03/28 02:11:00;;;;;;;7.67;4.43;;;8.60;97.20;;;;;;5030672;28;20418;-80
2024/03/28 02:13:26;;;;;;;8.50;4.87;;;8.60;97.20;;;;;;5015874;28;20018;-80
2024/03/28 02:15:52;;;;;;;10.23;5.30;;;8.60;97.20;;;;;;5015390;28;20067;-80
2024/03/28 02:18:21;;;;;;;9.50;5.23;;;8.60;97.20;;;;;;5030393;28;20466;-80
2024/03/28 02:20:48;;;;;;;8.43;4.70;;;8.60;97.20;;;;;;5015004;28;20021;-79
2024/03/28 02:23:18;;;;;;;7.10;4.37;;;8.60;97.20;;;;;;5015268;28;20478;-80
2024/03/28 02:25:47;;;;;;;11.43;5.27;;;8.60;97.20;;;;;;5015057;28;20029;-80
2024/03/28 02:28:13;;;;;;;8.67;5.30;;;8.60;97.20;;;;;;5030273;28;20083;-79
2024/03/28 02:30:40;;;;;;;7.17;4.83;;;8.70;97.20;;;;;;5015083;28;20026;-80
2024/03/28 02:33:06;;;;;;;8.53;4.23;;;8.70;97.20;;;;;;5015242;28;20062;-80
2024/03/28 02:35:31;;;;;;;7.53;4.70;;;8.60;97.20;;;;;;5015039;28;20061;-80
2024/03/28 02:37:58;;;;;;;8.23;4.97;;;8.60;97.20;;;;;;5015219;28;20021;-78
2024/03/28 02:40:25;;;;;;;7.13;4.60;;;8.70;97.20;;;;;;5014772;28;20045;-80
2024/03/28 02:42:50;;;;;;;6.67;4.33;;;8.70;97.20;;;;;;5015625;28;20022;-79
2024/03/28 02:45:17;;;;;;;9.13;4.67;;;8.60;97.20;;;;;;5015781;28;20054;-80
2024/03/28 02:47:43;;;;;;;6.70;4.20;;;8.70;97.30;;;;;;5030889;28;20052;-79
2024/03/28 02:50:09;;;;;;;7.53;4.30;;;8.60;97.20;;;;;;5015651;28;20054;-79
2024/03/28 02:52:36;;;;;;;6.30;4.10;;;8.70;97.30;;;;;;5029677;28;20022;-80
2024/03/28 02:55:02;;;;;;;7.73;3.90;;;8.70;97.20;;;;;;5014445;28;20026;-79
2024/03/28 02:57:28;;;;;;;6.63;3.87;;;8.70;97.10;;;;;;5030279;28;20516;-79
2024/03/28 02:59:53;;;;;;;7.73;3.40;;;8.70;97.00;;;;;;5014735;28;20022;-79
2024/03/28 03:02:19;;;;;;;5.60;2.90;;;8.70;97.00;;;;;;5014612;28;20037;-80
2024/03/28 03:04:45;;;;;;;6.90;3.13;;;8.70;96.90;;;;;;5015089;28;20034;-80
2024/03/28 03:07:11;;;;;;;6.50;3.13;;;8.70;96.80;;;;;;5014856;28;20049;-80
2024/03/28 03:09:37;;;;;;;4.67;3.17;;;8.70;96.70;;;;;;5014514;28;20425;-80
2024/03/28 03:12:02;;;;;;;4.50;2.67;;;8.60;96.60;;;;;;5029759;28;20466;-79
2024/03/28 03:14:29;;;;;;;5.70;2.97;;;8.60;96.60;;;;;;5014210;28;20036;-79
2024/03/28 03:16:55;;;;;;;5.20;3.17;;;8.60;96.60;;;;;;5029640;28;20028;-79
2024/03/28 03:19:22;;;;;;;4.67;2.30;;;8.50;96.50;;;;;;5029491;28;20017;-80
2024/03/28 03:21:49;;;;;;;4.77;2.87;;;8.50;96.50;;;;;;5014186;28;20018;-79
2024/03/28 03:24:15;;;;;;;5.13;2.60;;;8.50;96.60;;;;;;5014126;28;20022;-80
2024/03/28 03:26:49;;;;;;;4.40;2.50;;;8.50;96.60;;;;;;5014369;28;20018;-80
2024/03/28 03:34:51;;;;;;;7.13;2.93;;;8.50;96.70;;;;;;5014344;28;20479;-80
2024/03/28 03:37:21;;;;;;;4.07;2.47;;;8.40;96.70;;;;;;5013927;28;20034;-79
2024/03/28 03:39:52;;;;;;;6.07;2.93;;;8.50;96.80;;;;;;5028978;28;20029;-80
2024/03/28 03:42:18;;;;;;;5.20;2.70;;;8.40;96.80;;;;;;5014274;28;20029;-79
2024/03/28 03:44:44;;;;;;;4.43;2.47;;;8.50;96.80;;;;;;5013444;28;20022;-79
2024/03/28 03:47:09;;;;;;;6.63;2.90;;;8.50;96.80;;;;;;5028665;28;20045;-79
2024/03/28 03:49:35;;;;;;;5.60;3.10;;;8.40;96.70;;;;;;5029099;28;20463;-80
2024/03/28 03:52:01;;;;;;;7.00;4.10;;;8.40;96.70;;;;;;5034631;28;20032;-80
2024/03/28 03:54:26;;;;;;;7.10;4.20;;;8.40;96.60;;;;;;5031456;28;20049;-80
2024/03/28 03:56:52;;;;;;;6.03;4.00;;;8.40;96.60;;;;;;5033368;28;20172;-80
2024/03/28 03:59:17;;;;;;;6.40;3.53;;;8.30;96.50;;;;;;5033013;28;20100;-80
2024/03/28 04:01:43;;;;;;;6.43;3.00;;;8.20;96.50;;;;;;5033380;28;20033;-80
2024/03/28 04:04:08;;;;;;;8.03;4.37;;;8.20;96.60;;;;;;5033505;28;20017;-79
2024/03/28 04:06:34;;;;;;;7.50;3.63;;;8.30;96.60;;;;;;5033308;28;20025;-79
2024/03/28 04:09:00;;;;;;;5.53;3.30;;;8.20;96.70;;;;;;5033458;28;20029;-79
2024/03/28 04:11:25;;;;;;;6.70;3.43;;;8.20;96.70;;;;;;5031845;28;20025;-79
2024/03/28 04:13:51;;;;;;;7.13;3.70;;;8.20;96.70;;;;;;5033085;28;20140;-80
2024/03/28 04:16:16;;;;;;;5.67;3.30;;;8.10;96.70;;;;;;5033060;28;20033;-79
2024/03/28 04:18:42;;;;;;;6.23;3.37;;;8.10;96.80;;;;;;5033108;28;20084;-80
2024/03/28 04:21:08;;;;;;;6.53;3.20;;;8.10;96.80;;;;;;5032811;28;20028;-80
2024/03/28 04:23:33;;;;;;;6.20;3.40;;;8.10;96.90;;;;;;5032977;28;20022;-81
2024/03/28 04:26:00;;;;;;;5.67;3.17;;;8.10;96.90;;;;;;5032013;28;20031;-80
2024/03/28 04:28:26;;;;;;;5.30;2.57;;;8.10;96.90;;;;;;5032960;28;20113;-79
2024/03/28 04:30:52;;;;;;;6.07;2.77;;;8.10;96.90;;;;;;5032651;28;20026;-80
2024/03/28 04:33:18;;;;;;;6.37;3.37;;;8.10;96.90;;;;;;5032852;28;20057;-80
2024/03/28 04:35:46;;;;;;;4.93;2.80;;;8.10;96.90;;;;;;5032974;28;20474;-79
2024/03/28 04:38:12;;;;;;;6.27;3.60;;;8.00;96.90;;;;;;5033043;28;20030;-80
2024/03/28 04:40:37;;;;;;;5.27;2.97;;;8.10;97.00;;;;;;5031681;28;20025;-80
2024/03/28 04:43:03;;;;;;;6.30;2.80;;;8.00;96.90;;;;;;5031583;28;20021;-79
2024/03/28 04:45:29;;;;;;;5.13;3.13;;;8.00;96.90;;;;;;5032371;28;20485;-80
2024/03/28 04:47:55;;;;;;;6.00;3.13;;;7.90;96.90;;;;;;5031572;28;20390;-79
2024/03/28 04:50:20;;;;;;;6.13;3.70;;;7.90;96.90;;;;;;5027274;28;20029;-79
2024/03/28 04:52:46;;;;;;;6.97;3.90;;;7.90;96.80;;;;;;5013498;28;20033;-79
2024/03/28 04:55:13;;;;;;;5.73;3.30;;;7.90;96.90;;;;;;5012717;28;20101;-79
2024/03/28 04:57:39;;;;;;;7.93;4.00;;;7.90;96.80;;;;;;5013048;28;20030;-79
2024/03/28 05:00:08;;;;;;;8.07;4.27;;;7.90;96.80;;;;;;5028250;28;20187;-79
2024/03/28 05:02:37;;;;;;;8.00;4.70;;;7.90;96.80;;;;;;5028212;28;20037;-79
2024/03/28 05:05:04;;;;;;;7.63;4.70;;;7.70;96.80;;;;;;5013111;28;20033;-79
2024/03/28 05:07:31;;;;;;;8.50;4.80;;;7.80;96.90;;;;;;5028021;28;20066;-79
2024/03/28 05:09:56;;;;;;;10.03;4.97;;;7.70;97.10;;;;;;5027819;28;20030;-80
2024/03/28 05:12:22;;;;;;;7.90;4.83;;;7.80;97.20;;;;;;5013823;28;20014;-79
2024/03/28 05:14:48;;;;;;;8.40;5.33;;;7.80;97.30;;;;;;5029018;28;20018;-79
2024/03/28 05:17:14;;;;;;;9.53;5.60;;;7.80;97.10;;;;;;5028300;28;20036;-80
2024/03/28 05:19:39;;;;;;;10.67;6.10;;;7.70;97.20;;;;;;5027894;28;20494;-80
2024/03/28 05:22:07;;;;;;;10.77;6.27;;;7.70;97.20;;;;;;5012682;28;20026;-79
2024/03/28 05:24:33;;;;;;;8.93;5.67;;;7.70;97.30;;;;;;5027996;28;20026;-81
2024/03/28 05:27:00;;;;;;;11.73;5.93;;;7.70;97.30;;;;;;5027673;28;20022;-79
2024/03/28 05:29:26;;;;;;;9.67;5.97;;;7.60;97.30;;;;;;5012458;28;20034;-80
2024/03/28 05:31:51;;;;;;;11.33;5.47;;;7.60;97.40;;;;;;5027427;28;20432;-81
2024/03/28 05:34:17;;;;;;;12.83;7.13;;;7.60;97.30;;;;;;5012293;28;20541;-81
2024/03/28 05:36:43;;;;;;;12.43;6.63;;;7.60;97.50;;;;;;5029544;28;20026;-80
2024/03/28 05:39:08;;;;;;;9.43;5.70;;;7.60;97.60;;;;;;5031420;28;20028;-80
2024/03/28 05:41:35;;;;;;;9.53;5.77;;;7.60;97.70;;;;;;5016224;28;20060;-81
2024/03/28 05:44:01;;;;;;;10.87;7.00;;;7.60;97.70;;;;;;5016201;28;20434;-80
2024/03/28 05:46:27;;;;;;;9.80;6.10;;;7.60;97.70;;;;;;5015978;28;20116;-80
2024/03/28 05:48:53;;;;;;;9.77;5.67;;;7.60;98.10;;;;;;5016106;28;20033;-80
2024/03/28 05:51:19;;;;;;;12.87;6.80;;;7.50;97.70;;;;;;5016116;28;20493;-81
2024/03/28 05:53:48;;;;;;;12.93;7.40;;;7.60;97.90;;;;;;5015787;28;20061;-80
2024/03/28 05:56:21;;;;;;;10.97;6.47;;;7.60;97.90;;;;;;5031080;28;20057;-80
2024/03/28 05:58:47;;;;;;;12.53;6.23;;;7.60;97.90;;;;;;5030918;28;20030;-80
2024/03/28 06:01:13;;;;;;;9.20;5.90;;;7.60;97.90;;;;;;5015896;28;20026;-81
2024/03/28 06:03:39;;;;;;;12.17;6.67;;;7.60;98.10;;;;;;5015791;28;20033;-80
2024/03/28 06:06:06;;;;;;;10.93;5.50;;;7.60;98.10;;;;;;5015850;28;20026;-79
2024/03/28 06:08:31;;;;;;;10.63;5.70;;;7.70;98.30;;;;;;5015513;28;20041;-79
2024/03/28 06:10:57;;;;;;;10.70;5.67;;;7.70;98.40;;;;;;5030765;28;20018;-79
2024/03/28 06:13:23;;;;;;;10.27;6.07;;;7.80;98.40;;;;;;5015532;28;20022;-79
2024/03/28 06:15:49;;;;;;;11.37;6.27;;;7.80;98.40;;;;;;5030875;28;20021;-79
2024/03/28 06:18:15;;;;;;;10.50;6.13;;;7.80;98.50;;;;;;5015282;28;20422;-79
2024/03/28 06:20:41;;;;;;;10.33;5.90;;;7.90;98.50;;;;;;5023975;28;20037;-78
2024/03/28 06:23:07;;;;;;;9.47;5.53;;;7.90;98.60;;;;;;5023369;28;20025;-80
2024/03/28 06:25:39;;;;;;;10.63;6.17;;;7.90;98.50;;;;;;5034909;28;20520;-79
2024/03/28 06:28:05;;;;;;;8.23;4.60;;;7.90;98.50;;;;;;5031208;28;20472;-80
2024/03/28 06:30:40;;;;;;;7.53;4.60;;;8.00;98.70;;;;;;5035274;28;20040;-78
2024/03/28 06:33:05;;;;;;;9.13;5.27;;;7.90;98.50;;;;;;5028050;28;20374;-79
2024/03/28 06:35:31;;;;;;;8.40;5.13;;;7.90;98.50;;;;;;5023978;28;20029;-79
2024/03/28 06:37:57;;;;;;;7.67;4.97;;;7.80;98.40;;;;;;5033489;28;20026;-80
2024/03/28 06:40:23;;;;;;;8.23;5.10;;;7.90;98.40;;;;;;5033670;28;20461;-80
2024/03/28 06:42:48;;;;;;;8.70;5.30;;;7.80;98.40;;;;;;5033157;28;20060;-79
2024/03/28 06:45:15;;;;;;;9.03;4.90;;;7.80;98.40;;;;;;5033142;28;20071;-78
2024/03/28 06:47:41;;;;;;;8.23;4.87;;;7.80;98.40;;;;;;5032774;28;20025;-80
2024/03/28 06:50:07;;;;;;;10.47;5.83;;;7.90;98.60;;;;;;5032642;28;20036;-79
2024/03/28 06:52:32;;;;;;;7.30;4.53;;;7.80;98.60;;;;;;5034110;28;20030;-80
2024/03/28 06:54:58;;;;;;;9.77;4.53;;;7.90;98.60;;;;;;5033747;28;20021;-79
2024/03/28 06:57:23;;;;;;;6.90;4.20;;;7.90;98.60;;;;;;5033800;28;20508;-80
2024/03/28 06:59:49;;;;;;;8.30;3.67;;;8.00;98.70;;;;;;5034208;28;20083;-80
2024/03/28 07:02:15;;;;;;;6.60;4.03;;;8.00;98.70;;;;;;5030355;28;20042;-79
2024/03/28 07:04:41;;;;;;;6.97;4.37;;;8.20;98.70;;;;;;5034009;28;20026;-79
2024/03/28 07:07:07;;;;;;;6.43;4.17;;;8.30;98.60;;;;;;5032991;28;20044;-78
2024/03/28 07:09:33;;;;;;;5.53;3.50;;;8.40;98.60;;;;;;5034056;28;20091;-79
2024/03/28 07:11:58;;;;;;;7.20;3.47;;;8.50;98.60;;;;;;5049820;28;20092;-79
2024/03/28 07:14:24;;;;;;;4.90;2.50;;;8.60;98.50;;;;;;5053584;28;20036;-78
2024/03/28 07:16:49;;;;;;;4.87;2.63;;;8.70;98.50;;;;;;5051983;28;20024;-79
2024/03/28 07:19:15;;;;;;;5.97;3.00;;;8.80;98.40;;;;;;5054150;28;20033;-79
2024/03/28 07:21:41;;;;;;;5.50;3.47;;;8.90;98.30;;;;;;5053578;28;20078;-80
2024/03/28 07:24:07;;;;;;;4.47;2.63;;;8.90;98.60;;;;;;5053352;28;20032;-81
2024/03/28 07:26:33;;;;;;;5.57;3.60;;;9.10;98.40;;;;;;5052383;28;20021;-79
2024/03/28 07:28:58;;;;;;;5.40;2.90;;;9.20;98.20;;;;;;5052258;28;20389;-79
2024/03/28 07:31:24;;;;;;;5.20;3.03;;;9.30;98.00;;;;;;5053177;28;20358;-79
2024/03/28 07:33:50;;;;;;;4.97;2.73;;;9.40;97.90;;;;;;5053453;28;20021;-79
2024/03/28 07:36:16;;;;;;;5.20;3.43;;;9.40;97.50;;;;;;5052447;28;20547;-81
2024/03/28 07:38:43;;;;;;;7.47;2.97;;;9.50;97.10;;;;;;5051992;28;20013;-79
2024/03/28 07:41:09;;;;;;;6.17;2.70;;;9.60;97.20;;;;;;5053704;28;20028;-78
2024/03/28 07:43:41;;;;;;;4.25;2.53;;;9.60;97.10;;;;;;5053568;28;20017;-81
2024/03/28 07:46:07;;;;;;;4.67;2.33;;;9.70;97.00;;;;;;5051854;28;20045;-79
2024/03/28 07:48:35;;;;;;;4.70;2.37;;;9.70;96.40;;;;;;5052936;28;20044;-79
2024/03/28 07:51:02;;;;;;;4.77;2.30;;;9.70;96.40;;;;;;5053203;28;20473;-80
2024/03/28 07:53:29;;;;;;;4.40;2.10;;;9.80;96.40;;;;;;5052054;28;20017;-80
2024/03/28 07:55:54;;;;;;;4.17;2.30;;;9.80;95.90;;;;;;5051567;28;20035;-80
2024/03/28 07:58:21;;;;;;;4.50;1.63;;;9.80;95.90;;;;;;5053598;28;20013;-80
2024/03/28 08:00:47;;;;;;;2.83;1.20;;;9.80;95.60;;;;;;5053289;28;20404;-80
2024/03/28 08:03:18;;;;;;;2.57;1.27;;;9.80;94.30;;;;;;5053871;28;20056;-80
2024/03/28 08:05:46;;;;;;;4.30;1.60;;;9.80;94.20;;;;;;5053898;28;20017;-81
2024/03/28 08:08:13;;;;;;;3.40;1.17;;;9.80;94.10;;;;;;5053594;28;20051;-81
2024/03/28 08:10:39;;;;;;;3.40;1.40;;;9.90;94.10;;;;;;5053801;28;20465;-80
2024/03/28 08:13:04;;;;;;;3.20;1.67;;;9.80;93.70;;;;;;5051705;28;20081;-80
2024/03/28 08:15:33;;;;;;;4.73;1.60;;;9.80;93.90;;;;;;5051614;28;20025;-81
2024/03/28 08:18:03;;;;;;;4.30;1.50;;;9.90;93.60;;;;;;5051738;28;20033;-79
2024/03/28 08:20:29;;;;;;;3.53;1.60;;;9.90;93.60;;;;;;5053169;28;20035;-81
2024/03/28 08:22:56;;;;;;;3.80;1.43;;;9.80;93.50;;;;;;5053108;28;20033;-79
2024/03/28 08:25:22;;;;;;;3.37;1.27;;;9.80;93.60;;;;;;5053061;28;20029;-80
2024/03/28 08:27:49;;;;;;;2.73;1.33;;;9.80;93.80;;;;;;5052850;28;20036;-80
2024/03/28 08:30:15;;;;;;;4.87;1.80;;;9.80;93.80;;;;;;5051604;28;20472;-81
2024/03/28 08:32:41;;;;;;;5.67;1.70;;;9.70;93.90;;;;;;5052323;28;20032;-81
2024/03/28 08:35:10;;;;;;;4.30;1.77;;;9.70;94.00;;;;;;5051614;28;20035;-80
2024/03/28 08:37:39;;;;;;;3.73;1.73;;;9.60;94.20;;;;;;5053078;28;20104;-82
2024/03/28 08:40:09;;;;;;;3.20;2.07;;;9.60;94.40;;;;;;5051645;28;20029;-82
2024/03/28 08:42:38;;;;;;;3.47;1.90;;;9.50;94.60;;;;;;5052402;28;20041;-80
2024/03/28 08:45:05;;;;;;;4.43;2.13;;;9.50;94.80;;;;;;5051344;28;20017;-79
2024/03/28 08:47:30;;;;;;;3.80;2.27;;;9.40;95.10;;;;;;5052664;28;20063;-81
2024/03/28 08:49:56;;;;;;;4.33;1.90;;;9.30;95.40;;;;;;5052934;28;20492;-80
2024/03/28 08:52:22;;;;;;;5.57;2.03;;;9.30;95.90;;;;;;5052500;28;20021;-82
2024/03/28 08:54:47;;;;;;;4.17;1.97;;;9.20;96.40;;;;;;5051316;28;20067;-81
2024/03/28 08:57:13;;;;;;;3.40;1.77;;;9.10;96.70;;;;;;5052183;28;20100;-80
2024/03/28 08:59:39;;;;;;;4.40;1.87;;;9.00;97.20;;;;;;5052524;28;20469;-80
2024/03/28 09:02:07;;;;;;;7.17;1.87;;;8.90;97.20;;;;;;5052448;28;20104;-81
2024/03/28 09:04:33;;;;;;;3.83;1.77;;;9.00;97.80;;;;;;5051141;28;20075;-81
2024/03/28 09:06:59;;;;;;;4.07;1.73;;;9.10;98.30;;;;;;5051342;28;20021;-80
2024/03/28 09:09:24;;;;;;;4.07;1.33;;;9.10;98.60;;;;;;5051213;28;20025;-79
2024/03/28 09:11:50;;;;;;;4.60;1.40;;;9.10;98.60;;;;;;5053817;28;20473;-79
2024/03/28 09:14:16;;;;;;;4.60;1.90;;;9.00;98.60;;;;;;5056272;28;20050;-80
2024/03/28 09:16:42;;;;;;;2.80;1.27;;;9.00;99.00;;;;;;5056978;28;20491;-79
2024/03/28 09:19:08;;;;;;;3.27;1.30;;;9.00;99.00;;;;;;5055740;28;20021;-81
2024/03/28 09:21:33;;;;;;;3.60;1.80;;;9.00;99.00;;;;;;5056579;28;20473;-81
2024/03/28 09:23:59;;;;;;;2.90;1.43;;;9.10;99.20;;;;;;5058025;28;20477;-81
2024/03/28 09:26:25;;;;;;;3.80;1.60;;;9.10;99.40;;;;;;5056302;28;20017;-81
2024/03/28 09:28:55;;;;;;;4.43;1.43;;;9.10;99.50;;;;;;5054862;28;20033;-80
2024/03/28 09:31:21;;;;;;;3.70;1.53;;;9.10;99.50;;;;;;5054668;28;20053;-80
2024/03/28 09:33:47;;;;;;;4.30;1.60;;;9.00;99.70;;;;;;5056432;28;20078;-81
2024/03/28 09:36:16;;;;;;;3.00;1.30;;;9.10;99.90;;;;;;5056325;28;20021;-81
2024/03/28 09:38:44;;;;;;;2.73;1.20;;;9.00;99.90;;;;;;5055395;28;20024;-81
2024/03/28 09:41:25;;;;;;;4.53;1.30;;;8.90;99.90;;;;;;5054221;28;20410;-80
2024/03/28 09:44:05;;;;;;;4.80;1.63;;;8.90;99.90;;;;;;5054504;28;20575;-82
2024/03/28 09:46:33;;;;;;;4.43;1.30;;;8.90;99.90;;;;;;5054429;28;20032;-80
2024/03/28 09:49:00;;;;;;;3.77;1.40;;;8.90;99.90;;;;;;5054596;28;20029;-81
2024/03/28 09:51:28;;;;;;;3.47;1.20;;;8.90;99.90;;;;;;5054556;28;20458;-81
2024/03/28 09:53:56;;;;;;;3.03;1.50;;;9.00;99.90;;;;;;5055960;28;20024;-81
2024/03/28 09:56:22;;;;;;;3.30;1.40;;;8.90;99.90;;;;;;5056385;28;20032;-80
2024/03/28 09:58:49;;;;;;;6.60;2.53;;;8.90;99.90;;;;;;5055546;28;20056;-80
2024/03/28 10:01:15;;;;;;;3.10;1.20;;;8.90;99.90;;;;;;5055604;28;20021;-80
2024/03/28 10:03:45;;;;;;;3.47;1.67;;;8.80;99.90;;;;;;5055869;28;20032;-80
2024/03/28 10:06:11;;;;;;;3.57;1.63;;;8.90;99.90;;;;;;5055547;28;20043;-81
2024/03/28 10:08:38;;;;;;;4.03;1.30;;;9.00;99.90;;;;;;5055201;28;20042;-82
2024/03/28 10:11:08;;;;;;;3.87;1.70;;;9.00;99.90;;;;;;5054807;28;20025;-81
2024/03/28 10:13:38;;;;;;;4.87;1.90;;;8.90;99.90;;;;;;5055245;28;20040;-80
2024/03/28 10:16:12;;;;;;;3.50;1.53;;;8.90;99.90;;;;;;5053949;28;20025;-81
2024/03/28 10:18:38;;;;;;;4.25;1.73;;;8.90;99.90;;;;;;5054132;28;20044;-81
2024/03/28 10:21:05;;;;;;;4.07;1.70;;;9.00;99.90;;;;;;5055013;28;20461;-82
2024/03/28 10:23:31;;;;;;;4.97;2.20;;;8.90;99.90;;;;;;5052704;28;20464;-81
2024/03/28 10:25:58;;;;;;;3.67;1.57;;;8.90;99.90;;;;;;5055020;28;20498;-82
2024/03/28 10:28:30;;;;;;;4.07;1.33;;;8.80;99.90;;;;;;5055070;28;20489;-81
2024/03/28 10:31:00;;;;;;;2.70;1.40;;;8.80;99.90;;;;;;5054642;28;20040;-83
2024/03/28 10:33:26;;;;;;;4.93;1.93;;;8.80;99.90;;;;;;5053965;28;20481;-80
2024/03/28 10:36:00;;;;;;;2.80;1.37;;;8.70;99.90;;;;;;5053745;28;20091;-80
2024/03/28 10:38:26;;;;;;;2.83;1.37;;;8.70;99.90;;;;;;5053229;28;20047;-81
2024/03/28 10:40:58;;;;;;;2.57;1.37;;;8.60;99.90;;;;;;5054957;28;20104;-81
2024/03/28 10:43:27;;;;;;;3.37;1.47;;;8.50;99.90;;;;;;5053388;28;20052;-79
2024/03/28 10:46:02;;;;;;;3.40;1.40;;;8.40;99.90;;;;;;5053272;28;20064;-80
2024/03/28 10:48:30;;;;;;;3.40;1.80;;;8.40;99.90;;;;;;5053463;28;20064;-80
2024/03/28 10:51:22;;;;;;;2.87;1.20;;;8.40;99.90;;;;;;5054611;28;20032;-79
2024/03/28 10:54:05;;;;;;;3.30;1.37;;;8.40;99.90;;;;;;5054472;28;20094;-80
2024/03/28 10:56:31;;;;;;;2.13;1.10;;;8.30;99.90;;;;;;5054945;28;20017;-80
2024/03/28 10:59:00;;;;;;;3.53;1.30;;;8.40;99.90;;;;;;5053667;28;20674;-80
2024/03/28 11:01:30;;;;;;;2.50;1.37;;;8.30;99.90;;;;;;5053942;28;20029;-79
2024/03/28 11:04:02;;;;;;;3.27;1.40;;;8.40;99.90;;;;;;5055240;28;20013;-79
2024/03/28 11:06:28;;;;;;;3.17;1.30;;;8.40;99.90;;;;;;5054593;28;20040;-80
2024/03/28 11:08:57;;;;;;;2.90;1.43;;;8.40;99.90;;;;;;5053174;28;20039;-79
2024/03/28 11:11:23;;;;;;;3.10;1.33;;;8.50;99.90;;;;;;5054311;28;20025;-78
2024/03/28 11:13:49;;;;;;;2.90;1.37;;;8.60;99.90;;;;;;5054388;28;20035;-79
2024/03/28 11:16:20;;;;;;;2.53;1.23;;;8.70;99.90;;;;;;5054380;28;20025;-79
2024/03/28 11:18:46;;;;;;;3.13;1.57;;;8.80;99.90;;;;;;5054399;28;20021;-82
2024/03/28 11:21:12;;;;;;;4.50;1.17;;;9.00;99.90;;;;;;5053903;28;20183;-80
2024/03/28 11:23:45;;;;;;;3.00;1.57;;;9.10;99.90;;;;;;5053957;28;20060;-81
2024/03/28 11:26:11;;;;;;;5.43;1.70;;;9.20;99.90;;;;;;5052846;28;20078;-80
2024/03/28 11:28:39;;;;;;;4.23;1.27;;;9.20;99.90;;;;;;5052941;28;20079;-78
2024/03/28 11:31:06;;;;;;;8.47;1.43;;;9.30;99.90;;;;;;5052322;28;20029;-79
2024/03/28 11:33:39;;;;;;;5.50;2.23;;;9.40;99.90;;;;;;5036236;28;20037;-79
2024/03/28 11:36:06;;;;;;;6.30;1.90;;;9.40;99.90;;;;;;5053305;28;20055;-79
2024/03/28 11:38:36;;;;;;;6.93;1.80;;;9.50;99.90;;;;;;5053854;28;20036;-79
2024/03/28 11:41:03;;;;;;;5.97;1.87;;;9.60;99.90;;;;;;5053782;28;20415;-81
2024/03/28 11:43:31;;;;;;;4.53;2.03;;;9.70;99.90;;;;;;5053877;28;20052;-80
2024/03/28 11:46:01;;;;;;;6.00;2.47;;;9.70;99.90;;;;;;5053584;28;20040;-81
2024/03/28 11:48:33;;;;;;;7.93;2.17;;;9.70;99.90;;;;;;5053456;28;20066;-81
2024/03/28 11:51:03;;;;;;;6.80;2.00;;;9.80;99.90;;;;;;5051953;28;20112;-78
2024/03/28 11:53:29;;;;;;;8.83;2.03;;;9.90;99.90;;;;;;5053395;28;20021;-78
2024/03/28 11:55:54;;;;;;;4.10;1.90;;;9.90;99.90;;;;;;5052153;28;20481;-79
2024/03/28 11:58:24;;;;;;;8.30;2.63;;;10.10;99.90;;;;;;5051984;28;20044;-80
2024/03/28 12:00:55;;;;;;;6.00;2.63;;;10.10;99.90;;;;;;5053277;28;20042;-80
2024/03/28 12:03:21;;;;;;;4.78;2.90;;;10.20;99.90;;;;;;5053148;28;20056;-78
2024/03/28 12:05:50;;;;;;;4.53;2.75;;;10.40;99.90;;;;;;5052721;28;20071;-79
2024/03/28 12:08:20;;;;;;;6.07;3.15;;;10.50;99.90;;;;;;5052709;28;20123;-78
2024/03/28 12:10:45;;;;;;;7.40;2.50;;;10.70;99.90;;;;;;5051698;28;20491;-80
2024/03/28 12:13:11;;;;;;;6.53;2.70;;;10.90;99.90;;;;;;5052950;28;20029;-80
2024/03/28 12:15:37;;;;;;;4.68;2.05;;;11.20;99.90;;;;;;5051765;28;20081;-80
2024/03/28 12:18:03;;;;;;;7.30;2.17;;;11.40;99.90;;;;;;5053148;28;20423;-79
2024/03/28 12:20:30;;;;;;;6.55;2.58;;;11.80;99.90;;;;;;5052233;28;20067;-79
2024/03/28 12:22:58;;;;;;;5.80;1.88;;;12.20;99.90;;;;;;5051854;28;20540;-79
2024/03/28 12:25:25;;;;;;;5.63;1.83;;;12.50;99.90;;;;;;5052121;28;20017;-78
2024/03/28 12:27:54;;;;;;;7.72;2.38;;;12.80;98.10;;;;;;5052799;28;20306;-79
2024/03/28 12:30:20;;;;;;;6.07;1.70;;;13.00;96.70;;;;;;5052911;28;20021;-81
2024/03/28 12:32:46;;;;;;;4.05;1.33;;;13.20;95.30;;;;;;5050869;28;20017;-81
2024/03/28 12:35:12;;;;;;;3.65;1.10;;;13.50;95.50;;;;;;5052684;28;20538;-80
2024/03/28 12:37:38;;;;;;;4.93;1.38;;;13.80;95.90;;;;;;5052023;28;20028;-79
2024/03/28 12:40:05;;;;;;;2.88;1.15;;;14.10;94.40;;;;;;5052919;28;20033;-80
2024/03/28 12:42:32;;;;;;;4.28;1.10;;;14.40;94.00;;;;;;5053137;28;20044;-81
2024/03/28 12:45:21;;;;;;;4.05;0.70;;;14.60;93.40;;;;;;5052850;28;20033;-78
2024/03/28 12:47:48;;;;;;;7.45;1.00;;;14.90;92.00;;;;;;5050654;28;20112;-79
2024/03/28 12:50:19;;;;;;;3.38;0.88;;;14.90;90.10;;;;;;5052447;28;20036;-79
2024/03/28 12:52:49;;;;;;;4.57;1.00;;;14.90;90.20;;;;;;5014779;28;20042;-79
2024/03/28 12:55:15;;;;;;;4.50;0.85;;;14.90;89.00;;;;;;5012669;28;20359;-79
2024/03/28 12:57:41;;;;;;;2.35;0.82;;;15.00;84.00;;;;;;5012799;28;20037;-79
2024/03/28 13:00:11;;;;;;;2.08;0.70;;;15.30;85.20;;;;;;5028097;28;20037;-81